createdAt,value
2019-02-17T00:00:54.664Z,16
2019-02-17T00:01:56.562Z,15.9
2019-02-17T00:02:59.013Z,15.9
2019-02-17T00:04:01.435Z,15.9
2019-02-17T00:05:03.289Z,16
2019-02-17T00:06:05.725Z,16.1
2019-02-17T00:07:07.876Z,15.9
2019-02-17T00:08:10.023Z,15.9
2019-02-17T00:09:12.464Z,15.8
2019-02-17T00:10:14.610Z,15.8
2019-02-17T00:11:16.745Z,16.1
2019-02-17T00:12:19.171Z,16
2019-02-17T00:13:21.325Z,15.9
2019-02-17T00:14:24.543Z,16
2019-02-17T00:15:26.978Z,16
2019-02-17T00:16:29.125Z,15.9
2019-02-17T00:17:31.019Z,16
2019-02-17T00:18:33.442Z,16
2019-02-17T00:19:35.603Z,16
2019-02-17T00:20:38.043Z,16
2019-02-17T00:21:40.475Z,16.1
2019-02-17T00:22:42.905Z,16
2019-02-17T00:23:45.333Z,16
2019-02-17T00:24:47.763Z,16
2019-02-17T00:25:50.187Z,16.2
2019-02-17T00:26:52.611Z,16.1
2019-02-17T00:27:54.765Z,15.9
2019-02-17T00:30:02.166Z,16.2
2019-02-17T00:31:04.327Z,16
2019-02-17T00:32:06.754Z,16.1
2019-02-17T00:33:09.197Z,15.9
2019-02-17T00:34:13.657Z,16
2019-02-17T00:35:16.545Z,16
2019-02-17T00:36:18.703Z,16.1
2019-02-17T00:37:20.831Z,16
2019-02-17T00:38:22.712Z,16
2019-02-17T00:39:25.137Z,16.1
2019-02-17T00:40:27.567Z,16
2019-02-17T00:41:29.981Z,16.2
2019-02-17T00:42:32.415Z,16.1
2019-02-17T00:43:34.587Z,16.1
2019-02-17T00:44:37.031Z,16.1
2019-02-17T00:45:39.468Z,16.1
2019-02-17T00:46:41.923Z,16.1
2019-02-17T00:47:44.359Z,16.1
2019-02-17T00:48:46.522Z,16.2
2019-02-17T00:49:48.955Z,16.1
2019-02-17T00:50:51.116Z,16.1
2019-02-17T00:51:53.021Z,16.1
2019-02-17T00:52:55.445Z,16.1
2019-02-17T00:53:57.603Z,16.1
2019-02-17T00:54:59.763Z,16
2019-02-17T00:56:01.915Z,16.1
2019-02-17T00:57:04.354Z,16.1
2019-02-17T00:58:06.501Z,16.1
2019-02-17T00:59:10.857Z,16.1
2019-02-17T01:00:13.285Z,16.1
2019-02-17T01:01:15.451Z,16.2
2019-02-17T01:02:17.600Z,16.1
2019-02-17T01:03:19.741Z,16.1
2019-02-17T01:04:21.907Z,16.2
2019-02-17T01:05:24.339Z,16.1
2019-02-17T01:06:26.767Z,16.1
2019-02-17T01:07:29.197Z,16.1
2019-02-17T01:08:31.373Z,16.2
2019-02-17T01:09:33.804Z,16.2
2019-02-17T01:10:35.966Z,16.2
2019-02-17T01:11:38.402Z,16.2
2019-02-17T01:12:40.842Z,16.2
2019-02-17T01:13:43.274Z,16.2
2019-02-17T01:14:45.699Z,16.2
2019-02-17T01:15:47.872Z,16.2
2019-02-17T01:16:50.007Z,16.2
2019-02-17T01:17:51.647Z,16.2
2019-02-17T01:18:53.869Z,16.2
2019-02-17T01:19:56.026Z,16.2
2019-02-17T01:20:58.456Z,16.2
2019-02-17T01:22:00.353Z,16.2
2019-02-17T01:23:02.517Z,16.2
2019-02-17T01:24:04.946Z,16.2
2019-02-17T01:25:07.379Z,16.2
2019-02-17T01:26:09.260Z,16.2
2019-02-17T01:27:10.869Z,16.3
2019-02-17T01:28:12.752Z,16.3
2019-02-17T01:30:20.237Z,16.2
2019-02-17T01:31:22.374Z,16.3
2019-02-17T01:32:24.228Z,16.3
2019-02-17T01:33:26.649Z,16.3
2019-02-17T01:34:28.525Z,16.3
2019-02-17T01:35:30.652Z,16.3
2019-02-17T01:36:33.096Z,16.3
2019-02-17T01:37:35.549Z,16.3
2019-02-17T01:38:37.682Z,16.3
2019-02-17T01:39:40.110Z,16.3
2019-02-17T01:40:42.246Z,16.3
2019-02-17T01:41:44.398Z,16.3
2019-02-17T01:42:46.826Z,16.2
2019-02-17T01:43:48.967Z,16.3
2019-02-17T01:44:51.398Z,16.2
2019-02-17T01:45:53.826Z,16.3
2019-02-17T01:46:55.687Z,16.3
2019-02-17T01:47:58.117Z,16.3
2019-02-17T01:49:00.577Z,16.3
2019-02-17T01:50:02.727Z,16.3
2019-02-17T01:51:04.882Z,16.2
2019-02-17T01:52:07.033Z,16.3
2019-02-17T01:53:08.912Z,16.3
2019-02-17T01:54:11.337Z,16.3
2019-02-17T01:55:13.474Z,16.3
2019-02-17T01:56:15.898Z,16.3
2019-02-17T01:57:18.059Z,16.3
2019-02-17T01:58:20.485Z,16.3
2019-02-17T02:00:27.893Z,16.3
2019-02-17T02:01:30.045Z,16.3
2019-02-17T02:02:32.506Z,16.4
2019-02-17T02:03:34.924Z,16.3
2019-02-17T02:04:37.349Z,16.3
2019-02-17T02:05:39.474Z,16.3
2019-02-17T02:06:41.629Z,16.2
2019-02-17T02:07:43.493Z,16.3
2019-02-17T02:08:45.393Z,16.3
2019-02-17T02:09:47.815Z,16.4
2019-02-17T02:10:49.685Z,16.2
2019-02-17T02:11:51.875Z,16.3
2019-02-17T02:12:54.298Z,16.3
2019-02-17T02:13:56.454Z,16.2
2019-02-17T02:14:58.887Z,16.3
2019-02-17T02:16:01.047Z,16.3
2019-02-17T02:17:03.470Z,16.4
2019-02-17T02:18:05.889Z,16.3
2019-02-17T02:19:07.791Z,16.3
2019-02-17T02:20:10.216Z,16.3
2019-02-17T02:21:12.642Z,16.3
2019-02-17T02:22:15.070Z,16.4
2019-02-17T02:23:17.487Z,16.4
2019-02-17T02:24:19.645Z,16.3
2019-02-17T02:25:21.578Z,16.4
2019-02-17T02:26:24.003Z,16.3
2019-02-17T02:27:26.445Z,16.3
2019-02-17T02:28:28.880Z,16.3
2019-02-17T02:30:35.752Z,16.3
2019-02-17T02:31:37.893Z,16.3
2019-02-17T02:32:40.074Z,16.3
2019-02-17T02:33:42.236Z,16.3
2019-02-17T02:34:44.386Z,16.4
2019-02-17T02:35:46.796Z,16.4
2019-02-17T02:36:49.223Z,16.3
2019-02-17T02:37:51.095Z,16.3
2019-02-17T02:38:53.522Z,16.3
2019-02-17T02:39:55.961Z,16.3
2019-02-17T02:40:58.382Z,16.4
2019-02-17T02:42:00.815Z,16.3
2019-02-17T02:43:02.935Z,16.3
2019-02-17T02:44:05.063Z,16.3
2019-02-17T02:45:07.503Z,16.3
2019-02-17T02:46:09.933Z,16.3
2019-02-17T02:47:12.086Z,16.4
2019-02-17T02:48:14.523Z,16.4
2019-02-17T02:49:16.661Z,16.3
2019-02-17T02:50:19.089Z,16.4
2019-02-17T02:51:21.535Z,16.4
2019-02-17T02:52:23.973Z,16.3
2019-02-17T02:53:26.186Z,16.4
2019-02-17T02:54:28.342Z,16.3
2019-02-17T02:55:30.481Z,16.3
2019-02-17T02:56:32.643Z,16.5
2019-02-17T02:57:34.521Z,16.3
2019-02-17T02:58:36.949Z,16.4
2019-02-17T02:59:39.398Z,16.3
2019-02-17T03:00:46.382Z,16.4
2019-02-17T03:01:48.805Z,16.3
2019-02-17T03:02:50.973Z,16.4
2019-02-17T03:03:53.403Z,16.3
2019-02-17T03:04:55.559Z,16.4
2019-02-17T03:05:57.439Z,16.3
2019-02-17T03:06:59.871Z,16.3
2019-02-17T03:08:02.352Z,16.4
2019-02-17T03:09:04.788Z,16.3
2019-02-17T03:10:07.240Z,16.3
2019-02-17T03:11:09.390Z,16.3
2019-02-17T03:12:11.826Z,16.3
2019-02-17T03:13:14.249Z,16.4
2019-02-17T03:14:16.673Z,16.4
2019-02-17T03:15:19.098Z,16.4
2019-02-17T03:16:21.686Z,16.3
2019-02-17T03:17:24.107Z,16.3
2019-02-17T03:18:26.325Z,16.3
2019-02-17T03:19:28.492Z,16.4
2019-02-17T03:20:30.348Z,16.3
2019-02-17T03:21:32.779Z,16.4
2019-02-17T03:22:34.967Z,16.3
2019-02-17T03:23:37.405Z,16.3
2019-02-17T03:24:39.298Z,16.3
2019-02-17T03:25:41.153Z,16.4
2019-02-17T03:26:48.048Z,16.4
2019-02-17T03:27:50.469Z,16.3
2019-02-17T03:28:52.643Z,16.3
2019-02-17T03:30:59.472Z,16.3
2019-02-17T03:32:01.628Z,16.3
2019-02-17T03:33:04.089Z,16.3
2019-02-17T03:34:06.515Z,16.4
2019-02-17T03:35:08.663Z,16.3
2019-02-17T03:36:10.817Z,16.4
2019-02-17T03:37:12.953Z,16.4
2019-02-17T03:38:15.378Z,16.4
2019-02-17T03:39:17.529Z,16.4
2019-02-17T03:40:19.976Z,16.4
2019-02-17T03:41:22.252Z,16.4
2019-02-17T03:42:24.694Z,16.3
2019-02-17T03:43:26.916Z,16.3
2019-02-17T03:44:29.338Z,16.3
2019-02-17T03:45:31.771Z,16.3
2019-02-17T03:46:33.924Z,16.4
2019-02-17T03:47:36.351Z,16.4
2019-02-17T03:48:38.503Z,16.4
2019-02-17T03:49:40.631Z,16.3
2019-02-17T03:50:42.782Z,16.4
2019-02-17T03:51:45.031Z,16.4
2019-02-17T03:52:47.160Z,16.4
2019-02-17T03:53:49.582Z,16.3
2019-02-17T03:54:52.013Z,16.4
2019-02-17T03:55:54.435Z,16.5
2019-02-17T03:56:56.864Z,16.3
2019-02-17T03:57:58.743Z,16.5
2019-02-17T03:59:01.168Z,16.3
2019-02-17T04:00:03.355Z,16.3
2019-02-17T04:01:09.781Z,16.3
2019-02-17T04:02:12.217Z,16.3
2019-02-17T04:03:14.659Z,16.3
2019-02-17T04:04:16.540Z,16.3
2019-02-17T04:05:18.699Z,16.4
2019-02-17T04:06:21.123Z,16.4
2019-02-17T04:07:23.250Z,16.3
2019-02-17T04:08:25.674Z,16.3
2019-02-17T04:09:28.102Z,16.3
2019-02-17T04:10:30.528Z,16.3
2019-02-17T04:11:32.953Z,16.3
2019-02-17T04:12:35.369Z,16.3
2019-02-17T04:13:37.529Z,16.3
2019-02-17T04:14:39.701Z,16.2
2019-02-17T04:15:41.862Z,16.2
2019-02-17T04:16:44.033Z,16.3
2019-02-17T04:17:46.191Z,16.3
2019-02-17T04:18:48.082Z,16.2
2019-02-17T04:19:50.222Z,16.2
2019-02-17T04:20:52.096Z,16.2
2019-02-17T04:21:54.255Z,16.2
2019-02-17T04:22:56.683Z,16.2
2019-02-17T04:23:59.121Z,16.2
2019-02-17T04:25:01.273Z,16.2
2019-02-17T04:26:03.452Z,16.2
2019-02-17T04:27:05.596Z,16.2
2019-02-17T04:28:08.023Z,16.1
2019-02-17T04:29:10.891Z,16.2
2019-02-17T04:30:13.053Z,16.2
2019-02-17T04:31:15.212Z,16.2
2019-02-17T04:32:17.099Z,16.2
2019-02-17T04:33:19.526Z,16.1
2019-02-17T04:34:21.948Z,16.1
2019-02-17T04:35:24.419Z,16.2
2019-02-17T04:36:26.288Z,16.2
2019-02-17T04:37:28.722Z,16.2
2019-02-17T04:38:31.173Z,16.2
2019-02-17T04:39:33.324Z,16.2
2019-02-17T04:40:35.478Z,16.2
2019-02-17T04:41:37.902Z,16.1
2019-02-17T04:42:40.324Z,16.1
2019-02-17T04:43:42.751Z,16
2019-02-17T04:44:45.179Z,16.2
2019-02-17T04:45:47.606Z,16.1
2019-02-17T04:46:50.053Z,16.2
2019-02-17T04:47:51.947Z,16.2
2019-02-17T04:48:54.112Z,16.2
2019-02-17T04:49:56.304Z,16.1
2019-02-17T04:50:58.741Z,16.2
2019-02-17T04:52:00.889Z,16.1
2019-02-17T04:53:03.314Z,16
2019-02-17T04:54:05.733Z,16.1
2019-02-17T04:55:08.164Z,16.2
2019-02-17T04:56:10.313Z,16.2
2019-02-17T04:57:12.739Z,16.1
2019-02-17T04:58:15.183Z,16.2
2019-02-17T04:59:17.594Z,16.1
2019-02-17T05:00:20.009Z,16.1
2019-02-17T05:01:22.440Z,16.1
2019-02-17T05:02:24.860Z,16.1
2019-02-17T05:03:27.009Z,16.2
2019-02-17T05:04:29.173Z,16.1
2019-02-17T05:05:31.605Z,16.2
2019-02-17T05:06:34.023Z,16.1
2019-02-17T05:07:36.454Z,16.2
2019-02-17T05:08:38.880Z,16.1
2019-02-17T05:09:41.304Z,16.1
2019-02-17T05:10:43.789Z,16.1
2019-02-17T05:11:46.216Z,16.1
2019-02-17T05:12:48.644Z,16.1
2019-02-17T05:13:51.067Z,16
2019-02-17T05:14:53.495Z,16.2
2019-02-17T05:15:55.644Z,16.1
2019-02-17T05:16:58.070Z,16.2
2019-02-17T05:18:00.505Z,16.1
2019-02-17T05:19:02.641Z,16.2
2019-02-17T05:20:05.074Z,16.1
2019-02-17T05:21:07.210Z,16.2
2019-02-17T05:22:09.390Z,16.1
2019-02-17T05:23:11.297Z,16.1
2019-02-17T05:24:13.450Z,16.1
2019-02-17T05:25:15.876Z,15.9
2019-02-17T05:26:18.300Z,16.1
2019-02-17T05:27:20.474Z,16
2019-02-17T05:28:22.912Z,16
2019-02-17T05:29:25.061Z,16
2019-02-17T05:30:27.511Z,16.1
2019-02-17T05:31:29.955Z,16
2019-02-17T05:32:32.371Z,15.9
2019-02-17T05:33:34.535Z,16
2019-02-17T05:34:36.970Z,16
2019-02-17T05:35:38.863Z,16.1
2019-02-17T05:36:41.021Z,16
2019-02-17T05:37:43.464Z,16
2019-02-17T05:38:45.891Z,16.1
2019-02-17T05:39:48.059Z,16.1
2019-02-17T05:40:50.495Z,15.9
2019-02-17T05:41:52.652Z,16.1
2019-02-17T05:42:54.811Z,16
2019-02-17T05:43:57.242Z,15.9
2019-02-17T05:44:59.394Z,15.9
2019-02-17T05:46:01.967Z,16.1
2019-02-17T05:47:04.401Z,16
2019-02-17T05:48:06.539Z,16.1
2019-02-17T05:49:09.115Z,16.1
2019-02-17T05:50:11.590Z,16.1
2019-02-17T05:51:13.764Z,15.9
2019-02-17T05:52:16.181Z,16
2019-02-17T05:53:18.335Z,15.9
2019-02-17T05:54:20.493Z,16.1
2019-02-17T05:55:22.917Z,15.9
2019-02-17T05:56:24.785Z,16
2019-02-17T05:57:27.213Z,16
2019-02-17T05:58:29.335Z,15.9
2019-02-17T05:59:31.755Z,16.1
2019-02-17T06:00:33.979Z,16.1
2019-02-17T06:01:35.863Z,16.1
2019-02-17T06:02:38.008Z,16.1
2019-02-17T06:03:40.428Z,16
2019-02-17T06:04:42.590Z,16
2019-02-17T06:05:44.721Z,16.1
2019-02-17T06:06:47.187Z,16
2019-02-17T06:07:49.612Z,16.1
2019-02-17T06:08:51.483Z,16.1
2019-02-17T06:09:53.673Z,16
2019-02-17T06:10:56.105Z,15.9
2019-02-17T06:11:58.260Z,16.1
2019-02-17T06:13:00.689Z,15.9
2019-02-17T06:14:02.575Z,16
2019-02-17T06:15:04.997Z,16.1
2019-02-17T06:16:06.861Z,16
2019-02-17T06:17:09.285Z,15.9
2019-02-17T06:18:11.495Z,16
2019-02-17T06:19:13.637Z,16
2019-02-17T06:20:20.535Z,15.9
2019-02-17T06:21:22.951Z,16
2019-02-17T06:22:25.375Z,16
2019-02-17T06:23:27.861Z,16
2019-02-17T06:24:30.120Z,16.1
2019-02-17T06:25:32.550Z,16.1
2019-02-17T06:26:34.709Z,15.9
2019-02-17T06:27:37.134Z,16
2019-02-17T06:28:39.562Z,16.1
2019-02-17T06:29:41.720Z,16
2019-02-17T06:30:44.211Z,16.1
2019-02-17T06:31:46.370Z,16
2019-02-17T06:32:48.792Z,16
2019-02-17T06:33:51.215Z,16.1
2019-02-17T06:34:53.643Z,15.9
2019-02-17T06:35:56.168Z,16
2019-02-17T06:36:58.303Z,16
2019-02-17T06:37:59.901Z,16
2019-02-17T06:39:02.329Z,16.1
2019-02-17T06:40:04.754Z,15.9
2019-02-17T06:41:07.175Z,16
2019-02-17T06:42:09.619Z,15.9
2019-02-17T06:43:11.794Z,16
2019-02-17T06:44:14.214Z,15.9
2019-02-17T06:45:16.632Z,15.9
2019-02-17T06:46:22.312Z,15.8
2019-02-17T06:47:24.171Z,15.9
2019-02-17T06:48:26.633Z,15.8
2019-02-17T06:49:28.793Z,15.9
2019-02-17T06:51:35.985Z,16
2019-02-17T06:52:38.414Z,16
2019-02-17T06:53:40.845Z,15.9
2019-02-17T06:54:43.003Z,15.9
2019-02-17T06:55:45.437Z,15.8
2019-02-17T06:56:48.475Z,16.1
2019-02-17T06:57:50.633Z,16
2019-02-17T06:58:52.789Z,16
2019-02-17T06:59:55.225Z,16
2019-02-17T07:00:57.664Z,16
2019-02-17T07:01:59.819Z,16
2019-02-17T07:03:02.263Z,15.9
2019-02-17T07:04:04.459Z,16
2019-02-17T07:05:06.889Z,15.8
2019-02-17T07:06:09.413Z,15.9
2019-02-17T07:07:11.295Z,16
2019-02-17T07:08:13.744Z,16
2019-02-17T07:09:16.162Z,15.9
2019-02-17T07:10:18.575Z,16
2019-02-17T07:11:22.847Z,15.9
2019-02-17T07:12:26.472Z,16
2019-02-17T07:13:28.890Z,15.9
2019-02-17T07:14:31.324Z,16
2019-02-17T07:15:33.747Z,15.9
2019-02-17T07:16:36.179Z,15.9
2019-02-17T07:17:38.609Z,15.9
2019-02-17T07:18:41.039Z,16.1
2019-02-17T07:19:42.935Z,15.9
2019-02-17T07:20:45.092Z,16
2019-02-17T07:21:46.963Z,15.9
2019-02-17T07:22:49.393Z,15.8
2019-02-17T07:23:51.876Z,16
2019-02-17T07:24:54.293Z,15.8
2019-02-17T07:25:56.625Z,15.8
2019-02-17T07:26:59.053Z,15.9
2019-02-17T07:28:01.204Z,15.9
2019-02-17T07:29:03.415Z,15.9
2019-02-17T07:30:05.890Z,16
2019-02-17T07:31:08.425Z,16
2019-02-17T07:32:10.886Z,15.9
2019-02-17T07:33:13.334Z,16
2019-02-17T07:34:15.231Z,15.9
2019-02-17T07:35:17.655Z,15.8
2019-02-17T07:38:29.792Z,15.9
2019-02-17T07:39:32.233Z,16
2019-02-17T07:40:34.676Z,15.8
2019-02-17T07:41:36.832Z,15.9
2019-02-17T07:42:38.979Z,15.8
2019-02-17T07:43:41.126Z,15.9
2019-02-17T07:44:43.617Z,15.8
2019-02-17T07:45:45.772Z,15.9
2019-02-17T07:46:48.202Z,15.9
2019-02-17T07:47:50.635Z,15.9
2019-02-17T07:48:52.804Z,16
2019-02-17T07:49:54.977Z,15.9
2019-02-17T07:50:57.401Z,16
2019-02-17T07:51:59.267Z,15.9
2019-02-17T07:53:01.417Z,15.9
2019-02-17T07:54:03.841Z,15.8
2019-02-17T07:55:06.011Z,15.9
2019-02-17T07:56:08.156Z,15.9
2019-02-17T07:57:10.046Z,15.9
2019-02-17T07:58:11.640Z,15.9
2019-02-17T07:59:14.056Z,15.9
2019-02-17T08:00:16.484Z,16.1
2019-02-17T08:01:18.636Z,15.9
2019-02-17T08:02:20.804Z,15.9
2019-02-17T08:03:23.236Z,16
2019-02-17T08:04:25.723Z,15.8
2019-02-17T08:05:27.940Z,15.8
2019-02-17T08:06:29.813Z,15.9
2019-02-17T08:07:31.689Z,15.8
2019-02-17T08:08:34.115Z,16
2019-02-17T08:09:36.547Z,15.9
2019-02-17T08:10:38.976Z,15.9
2019-02-17T08:11:41.412Z,15.9
2019-02-17T08:12:43.566Z,15.8
2019-02-17T08:13:46.005Z,15.9
2019-02-17T08:14:48.492Z,15.9
2019-02-17T08:15:50.379Z,16
2019-02-17T08:16:52.556Z,15.9
2019-02-17T08:17:54.700Z,15.8
2019-02-17T08:18:57.142Z,15.9
2019-02-17T08:19:59.569Z,15.9
2019-02-17T08:21:01.737Z,15.9
2019-02-17T08:22:04.164Z,16.1
2019-02-17T08:23:06.626Z,15.9
2019-02-17T08:24:09.056Z,15.9
2019-02-17T08:26:16.493Z,15.9
2019-02-17T08:27:18.916Z,16
2019-02-17T08:28:21.353Z,15.8
2019-02-17T08:29:23.519Z,15.9
2019-02-17T08:30:25.956Z,15.9
2019-02-17T08:31:28.382Z,16
2019-02-17T08:32:30.514Z,15.8
2019-02-17T08:33:32.947Z,16
2019-02-17T08:34:35.097Z,15.9
2019-02-17T08:35:37.522Z,16
2019-02-17T08:36:39.687Z,15.8
2019-02-17T08:37:41.595Z,15.9
2019-02-17T08:38:44.212Z,15.9
2019-02-17T08:39:46.402Z,16
2019-02-17T08:40:48.276Z,15.9
2019-02-17T08:41:50.215Z,15.8
2019-02-17T08:42:52.664Z,15.9
2019-02-17T08:43:54.833Z,15.8
2019-02-17T08:44:57.280Z,15.9
2019-02-17T08:45:59.446Z,15.9
2019-02-17T08:47:01.997Z,15.9
2019-02-17T08:48:03.889Z,15.8
2019-02-17T08:49:05.778Z,15.9
2019-02-17T08:50:07.945Z,15.9
2019-02-17T08:51:10.376Z,16
2019-02-17T08:52:12.818Z,15.9
2019-02-17T08:53:14.977Z,15.9
2019-02-17T08:54:16.846Z,16
2019-02-17T08:55:19.017Z,16
2019-02-17T08:56:21.486Z,15.8
2019-02-17T08:57:23.649Z,16
2019-02-17T08:58:25.826Z,16
2019-02-17T08:59:28.004Z,15.9
2019-02-17T09:00:30.455Z,16
2019-02-17T09:01:32.594Z,15.8
2019-02-17T09:02:34.779Z,15.8
2019-02-17T09:03:36.664Z,16
2019-02-17T09:04:39.096Z,15.8
2019-02-17T09:06:46.513Z,15.8
2019-02-17T09:07:48.663Z,15.8
2019-02-17T09:08:50.794Z,16
2019-02-17T09:09:53.232Z,15.9
2019-02-17T09:10:55.707Z,16
2019-02-17T09:11:58.132Z,16
2019-02-17T09:13:00.336Z,16
2019-02-17T09:14:02.843Z,16
2019-02-17T09:15:05.254Z,15.8
2019-02-17T09:16:07.472Z,16
2019-02-17T09:17:09.891Z,15.9
2019-02-17T09:18:12.077Z,15.8
2019-02-17T09:19:14.515Z,16
2019-02-17T09:20:16.947Z,16
2019-02-17T09:21:19.377Z,15.9
2019-02-17T09:22:21.814Z,15.9
2019-02-17T09:23:24.254Z,16
2019-02-17T09:24:26.684Z,15.9
2019-02-17T09:25:28.850Z,16
2019-02-17T09:26:31.281Z,15.9
2019-02-17T09:27:33.710Z,15.9
2019-02-17T09:28:35.586Z,15.8
2019-02-17T09:29:37.738Z,16
2019-02-17T09:30:40.217Z,15.9
2019-02-17T09:31:42.373Z,15.9
2019-02-17T09:32:44.516Z,15.9
2019-02-17T09:33:46.956Z,15.9
2019-02-17T09:34:49.559Z,16
2019-02-17T09:35:51.478Z,15.9
2019-02-17T09:36:53.907Z,16.1
2019-02-17T09:37:55.772Z,15.9
2019-02-17T09:38:57.399Z,15.9
2019-02-17T09:39:59.583Z,16
2019-02-17T09:41:02.148Z,15.9
2019-02-17T09:42:04.044Z,15.9
2019-02-17T09:43:06.200Z,16.1
2019-02-17T09:44:08.087Z,15.9
2019-02-17T09:45:10.259Z,15.9
2019-02-17T09:46:12.405Z,16
2019-02-17T09:47:14.984Z,16
2019-02-17T09:48:17.139Z,16
2019-02-17T09:49:19.305Z,15.9
2019-02-17T09:50:21.462Z,15.9
2019-02-17T09:51:23.893Z,15.9
2019-02-17T09:52:26.363Z,15.8
2019-02-17T09:53:28.226Z,15.9
2019-02-17T09:54:30.680Z,16.1
2019-02-17T09:55:33.107Z,16.1
2019-02-17T09:56:35.290Z,15.9
2019-02-17T09:57:37.755Z,15.9
2019-02-17T09:58:39.915Z,15.9
2019-02-17T09:59:42.077Z,16
2019-02-17T10:00:44.215Z,16
2019-02-17T10:01:46.370Z,15.9
2019-02-17T10:02:48.487Z,16
2019-02-17T10:03:50.635Z,16
2019-02-17T10:04:52.785Z,15.8
2019-02-17T10:05:54.930Z,15.8
2019-02-17T10:06:57.377Z,15.9
2019-02-17T10:07:59.836Z,15.9
2019-02-17T10:09:01.718Z,16
2019-02-17T10:10:03.899Z,15.9
2019-02-17T10:11:06.073Z,15.9
2019-02-17T10:12:08.246Z,16
2019-02-17T10:13:10.685Z,16
2019-02-17T10:14:12.026Z,15.9
2019-02-17T10:15:14.492Z,16
2019-02-17T10:16:16.628Z,16.1
2019-02-17T10:17:19.078Z,15.9
2019-02-17T10:18:21.244Z,15.9
2019-02-17T10:19:23.671Z,15.9
2019-02-17T10:20:26.108Z,15.9
2019-02-17T10:21:28.304Z,16
2019-02-17T10:22:30.758Z,15.8
2019-02-17T10:23:33.195Z,15.9
2019-02-17T10:24:35.636Z,16
2019-02-17T10:25:37.800Z,16
2019-02-17T10:26:40.226Z,16
2019-02-17T10:27:42.385Z,15.9
2019-02-17T10:28:44.838Z,16
2019-02-17T10:29:47.003Z,15.9
2019-02-17T10:30:49.442Z,15.9
2019-02-17T10:31:51.872Z,15.9
2019-02-17T10:32:53.764Z,16
2019-02-17T10:33:56.209Z,16
2019-02-17T10:34:57.821Z,15.9
2019-02-17T10:36:00.006Z,16.1
2019-02-17T10:37:02.438Z,16.1
2019-02-17T10:38:04.304Z,15.9
2019-02-17T10:39:06.460Z,15.9
2019-02-17T10:40:08.678Z,15.9
2019-02-17T10:41:11.143Z,16
2019-02-17T10:42:13.310Z,15.9
2019-02-17T10:43:15.743Z,15.9
2019-02-17T10:44:18.165Z,16.1
2019-02-17T10:45:20.308Z,15.9
2019-02-17T10:46:22.481Z,15.9
2019-02-17T10:47:24.934Z,16.1
2019-02-17T10:48:27.360Z,15.9
2019-02-17T10:49:29.808Z,15.9
2019-02-17T10:50:31.993Z,16.1
2019-02-17T10:51:34.141Z,16.1
2019-02-17T10:52:36.308Z,15.9
2019-02-17T10:53:38.834Z,16
2019-02-17T10:54:41.257Z,16
2019-02-17T10:55:43.417Z,16
2019-02-17T10:56:45.867Z,16.2
2019-02-17T10:57:48.038Z,15.9
2019-02-17T10:58:50.474Z,15.9
2019-02-17T10:59:52.905Z,16.1
2019-02-17T11:00:57.485Z,16.1
2019-02-17T11:01:59.658Z,15.9
2019-02-17T11:03:02.093Z,16
2019-02-17T11:04:04.262Z,15.9
2019-02-17T11:05:06.741Z,16
2019-02-17T11:06:09.166Z,16.1
2019-02-17T11:07:11.637Z,16
2019-02-17T11:08:13.797Z,16.1
2019-02-17T11:09:16.271Z,16
2019-02-17T11:10:18.718Z,16
2019-02-17T11:11:20.865Z,15.9
2019-02-17T11:12:24.156Z,16
2019-02-17T11:13:26.586Z,16.1
2019-02-17T11:14:29.029Z,16
2019-02-17T11:15:31.448Z,15.9
2019-02-17T11:16:33.331Z,15.9
2019-02-17T11:17:35.479Z,15.9
2019-02-17T11:18:37.672Z,16.1
2019-02-17T11:19:40.108Z,15.9
2019-02-17T11:20:42.555Z,16
2019-02-17T11:21:44.988Z,16
2019-02-17T11:22:47.155Z,16
2019-02-17T11:23:49.325Z,16
2019-02-17T11:24:51.755Z,15.9
2019-02-17T11:25:53.925Z,15.9
2019-02-17T11:26:56.355Z,15.9
2019-02-17T11:27:58.517Z,16.1
2019-02-17T11:29:00.408Z,15.9
2019-02-17T11:30:04.860Z,16
2019-02-17T11:31:08.046Z,16
2019-02-17T11:32:10.206Z,16
2019-02-17T11:33:12.640Z,16.1
2019-02-17T11:34:15.077Z,16.2
2019-02-17T11:35:17.517Z,16
2019-02-17T11:36:19.134Z,16.1
2019-02-17T11:37:21.280Z,16
2019-02-17T11:38:23.152Z,15.9
2019-02-17T11:39:25.582Z,16.1
2019-02-17T11:40:28.059Z,16.1
2019-02-17T11:41:29.918Z,15.9
2019-02-17T11:42:32.358Z,15.9
2019-02-17T11:43:34.524Z,16.1
2019-02-17T11:44:36.962Z,16
2019-02-17T11:45:39.401Z,16.1
2019-02-17T11:46:41.563Z,16
2019-02-17T11:47:43.999Z,16
2019-02-17T11:48:46.197Z,16
2019-02-17T11:49:48.630Z,16
2019-02-17T11:50:51.130Z,16.1
2019-02-17T11:51:53.576Z,16
2019-02-17T11:52:55.740Z,15.8
2019-02-17T11:53:57.884Z,16
2019-02-17T11:54:59.759Z,16
2019-02-17T11:56:02.197Z,16
2019-02-17T11:57:04.666Z,15.9
2019-02-17T11:58:07.124Z,16.1
2019-02-17T11:59:09.030Z,15.9
2019-02-17T12:00:11.207Z,15.9
2019-02-17T12:01:13.634Z,16.1
2019-02-17T12:03:20.266Z,16.1
2019-02-17T12:04:22.693Z,16
2019-02-17T12:05:24.846Z,16
2019-02-17T12:06:27.026Z,16
2019-02-17T12:07:29.193Z,16
2019-02-17T12:08:31.646Z,16.1
2019-02-17T12:09:33.829Z,16
2019-02-17T12:10:36.269Z,16
2019-02-17T12:11:38.418Z,16
2019-02-17T12:12:40.576Z,16
2019-02-17T12:13:43.015Z,15.9
2019-02-17T12:14:45.445Z,15.9
2019-02-17T12:15:47.615Z,15.9
2019-02-17T12:16:49.756Z,15.8
2019-02-17T12:17:51.930Z,15.9
2019-02-17T12:18:54.078Z,15.8
2019-02-17T12:19:56.518Z,16.1
2019-02-17T12:20:58.686Z,16.1
2019-02-17T12:22:00.855Z,16
2019-02-17T12:23:02.727Z,16
2019-02-17T12:24:05.154Z,16.1
2019-02-17T12:25:07.326Z,15.9
2019-02-17T12:26:09.182Z,16.1
2019-02-17T12:27:11.617Z,16
2019-02-17T12:28:13.817Z,15.9
2019-02-17T12:29:16.280Z,16.1
2019-02-17T12:30:18.486Z,16
2019-02-17T12:31:20.908Z,15.9
2019-02-17T12:32:22.495Z,16
2019-02-17T12:33:24.969Z,16.1
2019-02-17T12:34:26.920Z,16.1
2019-02-17T12:35:28.791Z,15.9
2019-02-17T12:36:30.962Z,16
2019-02-17T12:37:33.404Z,16.1
2019-02-17T12:38:35.604Z,16
2019-02-17T12:39:38.084Z,15.9
2019-02-17T12:40:40.238Z,15.9
2019-02-17T12:41:42.407Z,16.1
2019-02-17T12:42:44.830Z,16
2019-02-17T12:43:47.276Z,16
2019-02-17T12:44:49.408Z,16
2019-02-17T12:45:51.309Z,15.9
2019-02-17T12:46:53.457Z,15.9
2019-02-17T12:49:00.493Z,15.8
2019-02-17T12:50:04.945Z,15.9
2019-02-17T12:51:07.507Z,16
2019-02-17T12:52:09.943Z,15.9
2019-02-17T12:53:12.374Z,16.1
2019-02-17T12:54:14.818Z,16.1
2019-02-17T12:55:17.245Z,15.9
2019-02-17T12:56:19.407Z,16
2019-02-17T12:57:21.568Z,16
2019-02-17T12:59:28.989Z,15.8
2019-02-17T13:00:31.459Z,16.1
2019-02-17T13:01:33.638Z,15.9
2019-02-17T13:02:36.080Z,16.1
2019-02-17T13:03:38.508Z,16
2019-02-17T13:04:40.933Z,15.9
2019-02-17T13:05:42.545Z,16
2019-02-17T13:06:44.692Z,15.9
2019-02-17T13:07:47.081Z,15.9
2019-02-17T13:08:49.539Z,16
2019-02-17T13:09:52.005Z,16
2019-02-17T13:10:54.450Z,16.1
2019-02-17T13:11:56.601Z,16
2019-02-17T13:12:59.053Z,15.9
2019-02-17T13:14:01.249Z,16
2019-02-17T13:15:03.671Z,16
2019-02-17T13:16:06.133Z,16
2019-02-17T13:17:08.592Z,16
2019-02-17T13:18:11.064Z,16
2019-02-17T13:19:13.493Z,16
2019-02-17T13:20:15.658Z,16
2019-02-17T13:21:17.528Z,16
2019-02-17T13:22:19.768Z,16
2019-02-17T13:23:22.183Z,16
2019-02-17T13:24:24.359Z,16
2019-02-17T13:25:28.923Z,16.2
2019-02-17T13:26:31.370Z,16
2019-02-17T13:27:33.881Z,16.1
2019-02-17T13:28:35.769Z,16.1
2019-02-17T13:29:40.237Z,16
2019-02-17T13:30:41.942Z,16.1
2019-02-17T13:31:44.407Z,16
2019-02-17T13:32:47.119Z,16
2019-02-17T13:33:49.568Z,16
2019-02-17T13:34:51.756Z,16
2019-02-17T13:35:54.205Z,16.1
2019-02-17T13:36:56.395Z,15.9
2019-02-17T13:37:58.574Z,16.1
2019-02-17T13:39:01.105Z,15.9
2019-02-17T13:40:03.555Z,16
2019-02-17T13:41:05.711Z,16.1
2019-02-17T13:42:07.584Z,16
2019-02-17T13:43:10.023Z,16
2019-02-17T13:44:11.916Z,16.1
2019-02-17T13:45:14.346Z,16
2019-02-17T13:46:16.798Z,15.9
2019-02-17T13:47:19.228Z,15.9
2019-02-17T13:48:21.651Z,15.9
2019-02-17T13:49:23.831Z,16
2019-02-17T13:50:26.007Z,15.9
2019-02-17T13:51:27.913Z,16
2019-02-17T13:52:32.546Z,16.1
2019-02-17T13:53:34.976Z,15.9
2019-02-17T13:54:37.137Z,15.9
2019-02-17T13:55:39.575Z,15.8
2019-02-17T13:56:41.739Z,16.1
2019-02-17T13:57:44.247Z,15.9
2019-02-17T13:58:46.123Z,16.1
2019-02-17T13:59:48.566Z,16
2019-02-17T14:00:50.995Z,16
2019-02-17T14:01:53.173Z,15.8
2019-02-17T14:02:55.618Z,16
2019-02-17T14:03:58.049Z,16
2019-02-17T14:05:00.501Z,16
2019-02-17T14:06:02.366Z,15.9
2019-02-17T14:07:04.504Z,16
2019-02-17T14:08:06.934Z,16
2019-02-17T14:09:09.363Z,15.9
2019-02-17T14:10:11.537Z,16
2019-02-17T14:11:14.001Z,16.1
2019-02-17T14:12:15.894Z,15.9
2019-02-17T14:13:18.099Z,16.1
2019-02-17T14:14:20.567Z,16.1
2019-02-17T14:15:23.003Z,16
2019-02-17T14:16:25.165Z,16.1
2019-02-17T14:17:27.606Z,16.1
2019-02-17T14:18:29.775Z,16.1